sensor_id;sensor_type;location;lat;lon;timestamp;temperature;humidity
19261;DHT22;9764;48.114;11.670;2023-06-04T00:01:05;25.80;80.20
19261;DHT22;9764;48.114;11.670;2023-06-04T00:03:43;25.70;80.10
19261;DHT22;9764;48.114;11.670;2023-06-04T00:06:11;25.70;80.10
19261;DHT22;9764;48.114;11.670;2023-06-04T00:08:40;25.70;80.30
19261;DHT22;9764;48.114;11.670;2023-06-04T00:11:08;25.70;80.20
19261;DHT22;9764;48.114;11.670;2023-06-04T00:13:36;25.70;80.20
19261;DHT22;9764;48.114;11.670;2023-06-04T00:16:06;25.70;80.20
19261;DHT22;9764;48.114;11.670;2023-06-04T00:18:34;25.70;80.20
19261;DHT22;9764;48.114;11.670;2023-06-04T00:21:03;25.70;81.10
19261;DHT22;9764;48.114;11.670;2023-06-04T00:23:32;25.70;80.30
19261;DHT22;9764;48.114;11.670;2023-06-04T00:26:00;25.70;80.30
19261;DHT22;9764;48.114;11.670;2023-06-04T00:28:29;25.60;80.30
19261;DHT22;9764;48.114;11.670;2023-06-04T00:30:57;25.60;80.30
19261;DHT22;9764;48.114;11.670;2023-06-04T00:33:26;25.60;80.30
19261;DHT22;9764;48.114;11.670;2023-06-04T00:35:55;25.60;80.20
19261;DHT22;9764;48.114;11.670;2023-06-04T00:38:23;25.60;80.20
19261;DHT22;9764;48.114;11.670;2023-06-04T00:40:51;25.60;80.30
19261;DHT22;9764;48.114;11.670;2023-06-04T00:43:20;25.60;80.30
19261;DHT22;9764;48.114;11.670;2023-06-04T00:45:52;25.60;80.40
19261;DHT22;9764;48.114;11.670;2023-06-04T00:48:21;25.60;80.30
19261;DHT22;9764;48.114;11.670;2023-06-04T00:50:51;25.60;80.20
19261;DHT22;9764;48.114;11.670;2023-06-04T00:53:20;25.60;80.30
19261;DHT22;9764;48.114;11.670;2023-06-04T00:55:49;25.60;80.20
19261;DHT22;9764;48.114;11.670;2023-06-04T00:58:18;25.60;80.30
19261;DHT22;9764;48.114;11.670;2023-06-04T01:00:47;25.50;80.20
19261;DHT22;9764;48.114;11.670;2023-06-04T01:03:19;25.50;80.20
19261;DHT22;9764;48.114;11.670;2023-06-04T01:05:55;25.50;80.30
19261;DHT22;9764;48.114;11.670;2023-06-04T01:08:27;25.50;81.10
19261;DHT22;9764;48.114;11.670;2023-06-04T01:10:56;25.50;80.20
19261;DHT22;9764;48.114;11.670;2023-06-04T01:13:26;25.50;80.20
19261;DHT22;9764;48.114;11.670;2023-06-04T01:15:55;25.50;80.60
19261;DHT22;9764;48.114;11.670;2023-06-04T01:18:27;25.50;80.30
19261;DHT22;9764;48.114;11.670;2023-06-04T01:21:01;25.50;80.30
19261;DHT22;9764;48.114;11.670;2023-06-04T01:23:34;25.40;80.20
19261;DHT22;9764;48.114;11.670;2023-06-04T01:26:06;25.40;80.20
19261;DHT22;9764;48.114;11.670;2023-06-04T01:28:35;25.40;80.20
19261;DHT22;9764;48.114;11.670;2023-06-04T01:31:05;25.40;81.10
19261;DHT22;9764;48.114;11.670;2023-06-04T01:33:35;25.40;80.30
19261;DHT22;9764;48.114;11.670;2023-06-04T01:36:05;25.40;80.20
19261;DHT22;9764;48.114;11.670;2023-06-04T01:38:37;25.40;80.20
19261;DHT22;9764;48.114;11.670;2023-06-04T01:41:05;25.40;80.20
19261;DHT22;9764;48.114;11.670;2023-06-04T01:43:34;25.40;80.20
19261;DHT22;9764;48.114;11.670;2023-06-04T01:46:03;25.40;80.30
19261;DHT22;9764;48.114;11.670;2023-06-04T01:48:32;25.40;80.20
19261;DHT22;9764;48.114;11.670;2023-06-04T01:51:00;25.40;80.20
19261;DHT22;9764;48.114;11.670;2023-06-04T01:53:30;25.40;80.20
19261;DHT22;9764;48.114;11.670;2023-06-04T01:55:59;25.40;80.20
19261;DHT22;9764;48.114;11.670;2023-06-04T01:58:28;25.40;80.30
19261;DHT22;9764;48.114;11.670;2023-06-04T02:00:59;25.40;80.30
19261;DHT22;9764;48.114;11.670;2023-06-04T02:03:30;25.30;80.20
19261;DHT22;9764;48.114;11.670;2023-06-04T02:06:04;25.40;81.10
19261;DHT22;9764;48.114;11.670;2023-06-04T02:08:36;25.30;80.10
19261;DHT22;9764;48.114;11.670;2023-06-04T02:11:06;25.30;80.10
19261;DHT22;9764;48.114;11.670;2023-06-04T02:13:34;25.30;80.20
19261;DHT22;9764;48.114;11.670;2023-06-04T02:16:03;25.30;80.20
19261;DHT22;9764;48.114;11.670;2023-06-04T02:18:31;25.30;80.20
19261;DHT22;9764;48.114;11.670;2023-06-04T02:21:00;25.30;80.10
19261;DHT22;9764;48.114;11.670;2023-06-04T02:23:28;25.30;80.20
19261;DHT22;9764;48.114;11.670;2023-06-04T02:25:58;25.30;80.10
19261;DHT22;9764;48.114;11.670;2023-06-04T02:28:26;25.30;80.20
19261;DHT22;9764;48.114;11.670;2023-06-04T02:30:55;25.30;80.20
19261;DHT22;9764;48.114;11.670;2023-06-04T02:33:23;25.20;80.10
19261;DHT22;9764;48.114;11.670;2023-06-04T02:35:51;25.20;80.20
19261;DHT22;9764;48.114;11.670;2023-06-04T02:38:20;25.20;80.20
19261;DHT22;9764;48.114;11.670;2023-06-04T02:40:48;25.20;80.20
19261;DHT22;9764;48.114;11.670;2023-06-04T02:43:18;25.20;80.10
19261;DHT22;9764;48.114;11.670;2023-06-04T02:45:47;25.20;80.20
19261;DHT22;9764;48.114;11.670;2023-06-04T02:48:15;25.20;80.10
19261;DHT22;9764;48.114;11.670;2023-06-04T02:50:44;25.20;80.10
19261;DHT22;9764;48.114;11.670;2023-06-04T02:53:12;25.20;80.20
19261;DHT22;9764;48.114;11.670;2023-06-04T02:55:41;25.20;80.10
19261;DHT22;9764;48.114;11.670;2023-06-04T02:58:09;25.20;80.10
19261;DHT22;9764;48.114;11.670;2023-06-04T03:00:39;25.20;80.10
19261;DHT22;9764;48.114;11.670;2023-06-04T03:03:08;25.10;80.00
19261;DHT22;9764;48.114;11.670;2023-06-04T03:05:37;25.10;80.10
19261;DHT22;9764;48.114;11.670;2023-06-04T03:08:06;25.10;80.10
19261;DHT22;9764;48.114;11.670;2023-06-04T03:10:35;25.10;80.00
19261;DHT22;9764;48.114;11.670;2023-06-04T03:13:03;25.10;80.00
19261;DHT22;9764;48.114;11.670;2023-06-04T03:15:32;25.10;80.00
19261;DHT22;9764;48.114;11.670;2023-06-04T03:18:01;25.10;80.10
19261;DHT22;9764;48.114;11.670;2023-06-04T03:20:30;25.10;80.90
19261;DHT22;9764;48.114;11.670;2023-06-04T03:23:05;25.10;80.10
19261;DHT22;9764;48.114;11.670;2023-06-04T03:25:34;25.10;80.10
19261;DHT22;9764;48.114;11.670;2023-06-04T03:28:02;25.10;80.10
19261;DHT22;9764;48.114;11.670;2023-06-04T03:30:32;25.10;80.00
19261;DHT22;9764;48.114;11.670;2023-06-04T03:33:04;25.10;80.10
19261;DHT22;9764;48.114;11.670;2023-06-04T03:35:33;25.10;80.00
19261;DHT22;9764;48.114;11.670;2023-06-04T03:38:02;25.10;80.10
19261;DHT22;9764;48.114;11.670;2023-06-04T03:40:31;25.10;80.10
19261;DHT22;9764;48.114;11.670;2023-06-04T03:43:00;25.10;80.10
19261;DHT22;9764;48.114;11.670;2023-06-04T03:45:32;25.10;80.00
19261;DHT22;9764;48.114;11.670;2023-06-04T03:48:01;25.10;80.10
19261;DHT22;9764;48.114;11.670;2023-06-04T03:50:31;25.00;80.20
19261;DHT22;9764;48.114;11.670;2023-06-04T03:53:00;25.00;80.10
19261;DHT22;9764;48.114;11.670;2023-06-04T03:55:30;25.00;80.20
19261;DHT22;9764;48.114;11.670;2023-06-04T03:58:00;25.00;80.30
19261;DHT22;9764;48.114;11.670;2023-06-04T04:00:29;25.00;80.10
19261;DHT22;9764;48.114;11.670;2023-06-04T04:03:00;25.00;80.10
19261;DHT22;9764;48.114;11.670;2023-06-04T04:05:32;25.00;80.00
19261;DHT22;9764;48.114;11.670;2023-06-04T04:08:00;25.00;79.90
19261;DHT22;9764;48.114;11.670;2023-06-04T04:10:32;25.00;79.90
19261;DHT22;9764;48.114;11.670;2023-06-04T04:13:02;24.90;79.80
19261;DHT22;9764;48.114;11.670;2023-06-04T04:15:34;24.90;79.80
19261;DHT22;9764;48.114;11.670;2023-06-04T04:18:03;25.00;79.90
19261;DHT22;9764;48.114;11.670;2023-06-04T04:20:36;25.00;79.80
19261;DHT22;9764;48.114;11.670;2023-06-04T04:23:08;24.90;79.80
19261;DHT22;9764;48.114;11.670;2023-06-04T04:25:39;24.90;79.90
19261;DHT22;9764;48.114;11.670;2023-06-04T04:28:08;24.90;79.80
19261;DHT22;9764;48.114;11.670;2023-06-04T04:30:38;25.00;79.80
19261;DHT22;9764;48.114;11.670;2023-06-04T04:33:08;25.00;79.80
19261;DHT22;9764;48.114;11.670;2023-06-04T04:35:44;25.00;79.70
19261;DHT22;9764;48.114;11.670;2023-06-04T04:38:15;25.10;79.80
19261;DHT22;9764;48.114;11.670;2023-06-04T04:40:51;25.10;79.70
19261;DHT22;9764;48.114;11.670;2023-06-04T04:43:30;25.10;79.60
19261;DHT22;9764;48.114;11.670;2023-06-04T04:46:04;25.20;79.50
19261;DHT22;9764;48.114;11.670;2023-06-04T04:48:33;25.20;79.50
19261;DHT22;9764;48.114;11.670;2023-06-04T04:51:03;25.20;79.40
19261;DHT22;9764;48.114;11.670;2023-06-04T04:53:32;25.30;79.30
19261;DHT22;9764;48.114;11.670;2023-06-04T04:56:00;25.30;79.20
19261;DHT22;9764;48.114;11.670;2023-06-04T04:58:30;25.40;79.30
19261;DHT22;9764;48.114;11.670;2023-06-04T05:00:59;25.40;79.20
19261;DHT22;9764;48.114;11.670;2023-06-04T05:03:28;25.40;79.10
19261;DHT22;9764;48.114;11.670;2023-06-04T05:05:56;25.40;79.00
19261;DHT22;9764;48.114;11.670;2023-06-04T05:08:26;25.50;79.00
19261;DHT22;9764;48.114;11.670;2023-06-04T05:10:54;25.50;78.90
19261;DHT22;9764;48.114;11.670;2023-06-04T05:13:23;25.60;78.80
19261;DHT22;9764;48.114;11.670;2023-06-04T05:15:57;25.60;78.80
19261;DHT22;9764;48.114;11.670;2023-06-04T05:18:28;25.70;78.70
19261;DHT22;9764;48.114;11.670;2023-06-04T05:21:00;25.70;78.60
19261;DHT22;9764;48.114;11.670;2023-06-04T05:23:34;25.80;78.60
19261;DHT22;9764;48.114;11.670;2023-06-04T05:26:04;25.90;78.20
19261;DHT22;9764;48.114;11.670;2023-06-04T05:28:33;26.50;77.40
19261;DHT22;9764;48.114;11.670;2023-06-04T05:31:03;27.30;76.10
19261;DHT22;9764;48.114;11.670;2023-06-04T05:33:33;27.80;74.90
19261;DHT22;9764;48.114;11.670;2023-06-04T05:36:06;28.00;74.50
19261;DHT22;9764;48.114;11.670;2023-06-04T05:38:42;27.50;74.90
19261;DHT22;9764;48.114;11.670;2023-06-04T05:41:13;27.10;75.90
19261;DHT22;9764;48.114;11.670;2023-06-04T05:43:42;26.80;76.60
19261;DHT22;9764;48.114;11.670;2023-06-04T05:46:14;26.50;77.00
19261;DHT22;9764;48.114;11.670;2023-06-04T05:48:44;26.40;77.40
19261;DHT22;9764;48.114;11.670;2023-06-04T05:51:13;26.30;77.70
19261;DHT22;9764;48.114;11.670;2023-06-04T05:53:43;26.30;77.90
19261;DHT22;9764;48.114;11.670;2023-06-04T05:56:11;26.20;78.00
19261;DHT22;9764;48.114;11.670;2023-06-04T05:58:41;26.20;78.10
19261;DHT22;9764;48.114;11.670;2023-06-04T06:01:11;26.20;78.10
19261;DHT22;9764;48.114;11.670;2023-06-04T06:03:39;26.20;78.10
19261;DHT22;9764;48.114;11.670;2023-06-04T06:06:08;26.20;78.10
19261;DHT22;9764;48.114;11.670;2023-06-04T06:08:37;26.20;78.10
19261;DHT22;9764;48.114;11.670;2023-06-04T06:11:07;26.20;78.20
19261;DHT22;9764;48.114;11.670;2023-06-04T06:13:37;26.20;78.20
19261;DHT22;9764;48.114;11.670;2023-06-04T06:16:08;26.20;78.00
19261;DHT22;9764;48.114;11.670;2023-06-04T06:18:36;26.20;78.00
19261;DHT22;9764;48.114;11.670;2023-06-04T06:21:05;26.20;77.90
19261;DHT22;9764;48.114;11.670;2023-06-04T06:23:34;26.30;78.00
19261;DHT22;9764;48.114;11.670;2023-06-04T06:26:03;26.30;77.90
19261;DHT22;9764;48.114;11.670;2023-06-04T06:28:41;26.30;77.80
19261;DHT22;9764;48.114;11.670;2023-06-04T06:31:11;26.30;77.70
19261;DHT22;9764;48.114;11.670;2023-06-04T06:33:39;26.30;77.70
19261;DHT22;9764;48.114;11.670;2023-06-04T06:36:10;26.30;77.50
19261;DHT22;9764;48.114;11.670;2023-06-04T06:38:39;26.30;77.40
19261;DHT22;9764;48.114;11.670;2023-06-04T06:41:08;26.30;77.40
19261;DHT22;9764;48.114;11.670;2023-06-04T06:43:36;26.40;77.30
19261;DHT22;9764;48.114;11.670;2023-06-04T06:46:06;26.40;77.20
19261;DHT22;9764;48.114;11.670;2023-06-04T06:48:35;26.40;77.10
19261;DHT22;9764;48.114;11.670;2023-06-04T06:51:03;26.40;76.80
19261;DHT22;9764;48.114;11.670;2023-06-04T06:53:32;26.40;76.50
19261;DHT22;9764;48.114;11.670;2023-06-04T06:56:00;26.40;76.30
19261;DHT22;9764;48.114;11.670;2023-06-04T06:58:28;26.40;76.20
19261;DHT22;9764;48.114;11.670;2023-06-04T07:00:57;26.40;76.00
19261;DHT22;9764;48.114;11.670;2023-06-04T07:03:27;26.40;76.00
19261;DHT22;9764;48.114;11.670;2023-06-04T07:05:56;26.40;75.90
19261;DHT22;9764;48.114;11.670;2023-06-04T07:08:25;26.40;75.90
19261;DHT22;9764;48.114;11.670;2023-06-04T07:10:53;26.40;75.70
19261;DHT22;9764;48.114;11.670;2023-06-04T07:13:21;26.50;75.70
19261;DHT22;9764;48.114;11.670;2023-06-04T07:15:50;26.50;75.60
19261;DHT22;9764;48.114;11.670;2023-06-04T07:18:18;26.50;75.50
19261;DHT22;9764;48.114;11.670;2023-06-04T07:20:47;26.50;75.10
19261;DHT22;9764;48.114;11.670;2023-06-04T07:23:16;26.50;75.10
19261;DHT22;9764;48.114;11.670;2023-06-04T07:25:45;26.50;75.10
19261;DHT22;9764;48.114;11.670;2023-06-04T07:28:14;26.60;75.10
19261;DHT22;9764;48.114;11.670;2023-06-04T07:30:44;26.50;74.90
19261;DHT22;9764;48.114;11.670;2023-06-04T07:33:12;26.60;75.80
19261;DHT22;9764;48.114;11.670;2023-06-04T07:35:41;26.60;74.80
19261;DHT22;9764;48.114;11.670;2023-06-04T07:38:10;26.60;74.80
19261;DHT22;9764;48.114;11.670;2023-06-04T07:40:39;26.60;74.60
19261;DHT22;9764;48.114;11.670;2023-06-04T07:43:07;26.60;75.30
19261;DHT22;9764;48.114;11.670;2023-06-04T07:45:35;26.70;74.60
19261;DHT22;9764;48.114;11.670;2023-06-04T07:48:04;26.70;75.30
19261;DHT22;9764;48.114;11.670;2023-06-04T07:50:33;26.70;74.40
19261;DHT22;9764;48.114;11.670;2023-06-04T07:53:04;26.70;74.30
19261;DHT22;9764;48.114;11.670;2023-06-04T07:55:34;26.70;74.20
19261;DHT22;9764;48.114;11.670;2023-06-04T07:58:03;26.70;74.10
19261;DHT22;9764;48.114;11.670;2023-06-04T08:00:33;26.80;74.30
19261;DHT22;9764;48.114;11.670;2023-06-04T08:03:01;26.80;74.30
19261;DHT22;9764;48.114;11.670;2023-06-04T08:05:30;26.80;74.30
19261;DHT22;9764;48.114;11.670;2023-06-04T08:07:58;26.80;74.40
19261;DHT22;9764;48.114;11.670;2023-06-04T08:10:27;26.80;74.30
19261;DHT22;9764;48.114;11.670;2023-06-04T08:12:56;26.80;74.40
19261;DHT22;9764;48.114;11.670;2023-06-04T08:15:25;26.80;74.40
19261;DHT22;9764;48.114;11.670;2023-06-04T08:18:13;26.80;74.40
19261;DHT22;9764;48.114;11.670;2023-06-04T08:20:56;26.90;74.50
19261;DHT22;9764;48.114;11.670;2023-06-04T08:23:41;26.90;74.50
19261;DHT22;9764;48.114;11.670;2023-06-04T08:26:29;26.90;75.50
19261;DHT22;9764;48.114;11.670;2023-06-04T08:29:09;26.90;74.70
19261;DHT22;9764;48.114;11.670;2023-06-04T08:31:46;26.90;74.80
19261;DHT22;9764;48.114;11.670;2023-06-04T08:34:25;26.90;74.80
19261;DHT22;9764;48.114;11.670;2023-06-04T08:36:53;26.90;74.80
19261;DHT22;9764;48.114;11.670;2023-06-04T08:39:21;26.90;74.90
19261;DHT22;9764;48.114;11.670;2023-06-04T08:41:52;26.90;74.80
19261;DHT22;9764;48.114;11.670;2023-06-04T08:44:22;26.90;74.80
19261;DHT22;9764;48.114;11.670;2023-06-04T08:46:52;26.90;74.80
19261;DHT22;9764;48.114;11.670;2023-06-04T08:49:22;26.90;74.90
19261;DHT22;9764;48.114;11.670;2023-06-04T08:51:52;26.90;75.10
19261;DHT22;9764;48.114;11.670;2023-06-04T08:54:20;26.90;75.00
19261;DHT22;9764;48.114;11.670;2023-06-04T08:56:49;26.90;75.20
19261;DHT22;9764;48.114;11.670;2023-06-04T08:59:19;26.90;75.20
19261;DHT22;9764;48.114;11.670;2023-06-04T09:01:51;26.90;75.30
19261;DHT22;9764;48.114;11.670;2023-06-04T09:04:20;26.90;75.30
19261;DHT22;9764;48.114;11.670;2023-06-04T09:06:49;26.90;75.30
19261;DHT22;9764;48.114;11.670;2023-06-04T09:09:17;26.90;75.30
19261;DHT22;9764;48.114;11.670;2023-06-04T09:11:50;26.90;75.30
19261;DHT22;9764;48.114;11.670;2023-06-04T09:14:19;26.90;75.40
19261;DHT22;9764;48.114;11.670;2023-06-04T09:16:51;26.90;75.40
19261;DHT22;9764;48.114;11.670;2023-06-04T09:19:20;26.90;75.50
19261;DHT22;9764;48.114;11.670;2023-06-04T09:21:51;26.90;75.50
19261;DHT22;9764;48.114;11.670;2023-06-04T09:24:19;26.90;75.50
19261;DHT22;9764;48.114;11.670;2023-06-04T09:26:49;26.90;75.60
19261;DHT22;9764;48.114;11.670;2023-06-04T09:29:18;27.00;75.80
19261;DHT22;9764;48.114;11.670;2023-06-04T09:31:56;26.90;76.50
19261;DHT22;9764;48.114;11.670;2023-06-04T09:34:27;27.00;75.80
19261;DHT22;9764;48.114;11.670;2023-06-04T09:36:56;27.00;75.80
19261;DHT22;9764;48.114;11.670;2023-06-04T09:39:24;27.00;75.80
19261;DHT22;9764;48.114;11.670;2023-06-04T09:42:00;27.00;75.80
19261;DHT22;9764;48.114;11.670;2023-06-04T09:44:29;27.00;75.70
19261;DHT22;9764;48.114;11.670;2023-06-04T09:46:59;27.00;75.80
19261;DHT22;9764;48.114;11.670;2023-06-04T09:49:27;27.00;75.80
19261;DHT22;9764;48.114;11.670;2023-06-04T09:51:56;27.00;75.60
19261;DHT22;9764;48.114;11.670;2023-06-04T09:54:35;27.00;75.60
19261;DHT22;9764;48.114;11.670;2023-06-04T09:57:04;27.00;75.50
19261;DHT22;9764;48.114;11.670;2023-06-04T09:59:37;27.00;75.60
19261;DHT22;9764;48.114;11.670;2023-06-04T10:02:09;27.10;75.70
19261;DHT22;9764;48.114;11.670;2023-06-04T10:04:41;27.00;75.50
19261;DHT22;9764;48.114;11.670;2023-06-04T10:07:11;27.00;75.60
19261;DHT22;9764;48.114;11.670;2023-06-04T10:09:41;27.10;75.80
19261;DHT22;9764;48.114;11.670;2023-06-04T10:12:14;27.10;75.80
19261;DHT22;9764;48.114;11.670;2023-06-04T10:14:48;27.00;75.60
19261;DHT22;9764;48.114;11.670;2023-06-04T10:17:23;27.00;75.60
19261;DHT22;9764;48.114;11.670;2023-06-04T10:19:54;27.10;75.80
19261;DHT22;9764;48.114;11.670;2023-06-04T10:22:24;27.10;75.60
19261;DHT22;9764;48.114;11.670;2023-06-04T10:24:52;27.10;75.60
19261;DHT22;9764;48.114;11.670;2023-06-04T10:27:21;27.10;75.60
19261;DHT22;9764;48.114;11.670;2023-06-04T10:29:50;27.10;75.60
19261;DHT22;9764;48.114;11.670;2023-06-04T10:32:19;27.10;75.50
19261;DHT22;9764;48.114;11.670;2023-06-04T10:34:49;27.20;75.60
19261;DHT22;9764;48.114;11.670;2023-06-04T10:37:21;27.10;75.60
19261;DHT22;9764;48.114;11.670;2023-06-04T10:39:53;27.10;75.30
19261;DHT22;9764;48.114;11.670;2023-06-04T10:42:22;27.20;75.40
19261;DHT22;9764;48.114;11.670;2023-06-04T10:44:52;27.20;75.50
19261;DHT22;9764;48.114;11.670;2023-06-04T10:47:24;27.20;75.60
19261;DHT22;9764;48.114;11.670;2023-06-04T10:49:55;27.20;75.50
19261;DHT22;9764;48.114;11.670;2023-06-04T10:52:34;27.20;76.10
19261;DHT22;9764;48.114;11.670;2023-06-04T10:55:04;27.20;75.30
19261;DHT22;9764;48.114;11.670;2023-06-04T10:57:33;27.20;75.30
19261;DHT22;9764;48.114;11.670;2023-06-04T11:00:02;27.30;75.40
19261;DHT22;9764;48.114;11.670;2023-06-04T11:02:33;27.30;75.30
19261;DHT22;9764;48.114;11.670;2023-06-04T11:05:04;27.30;75.30
19261;DHT22;9764;48.114;11.670;2023-06-04T11:07:43;27.30;75.30
19261;DHT22;9764;48.114;11.670;2023-06-04T11:10:12;27.30;75.10
19261;DHT22;9764;48.114;11.670;2023-06-04T11:12:42;27.30;75.10
19261;DHT22;9764;48.114;11.670;2023-06-04T11:15:11;27.30;74.90
19261;DHT22;9764;48.114;11.670;2023-06-04T11:17:50;27.30;74.90
19261;DHT22;9764;48.114;11.670;2023-06-04T11:20:21;27.30;74.80
19261;DHT22;9764;48.114;11.670;2023-06-04T11:22:53;27.30;74.80
19261;DHT22;9764;48.114;11.670;2023-06-04T11:25:24;27.30;74.90
19261;DHT22;9764;48.114;11.670;2023-06-04T11:27:54;27.40;75.00
19261;DHT22;9764;48.114;11.670;2023-06-04T11:30:23;27.30;74.80
19261;DHT22;9764;48.114;11.670;2023-06-04T11:33:00;27.30;74.60
19261;DHT22;9764;48.114;11.670;2023-06-04T11:35:30;27.30;74.60
19261;DHT22;9764;48.114;11.670;2023-06-04T11:37:58;27.40;74.80
19261;DHT22;9764;48.114;11.670;2023-06-04T11:40:27;27.40;74.50
19261;DHT22;9764;48.114;11.670;2023-06-04T11:42:55;27.40;75.30
19261;DHT22;9764;48.114;11.670;2023-06-04T11:45:24;27.40;74.60
19261;DHT22;9764;48.114;11.670;2023-06-04T11:47:57;27.40;74.50
19261;DHT22;9764;48.114;11.670;2023-06-04T11:50:27;27.40;74.50
19261;DHT22;9764;48.114;11.670;2023-06-04T11:52:58;27.40;74.30
19261;DHT22;9764;48.114;11.670;2023-06-04T11:55:27;27.40;75.30
19261;DHT22;9764;48.114;11.670;2023-06-04T11:57:56;27.40;74.50
19261;DHT22;9764;48.114;11.670;2023-06-04T12:00:24;27.40;74.50
19261;DHT22;9764;48.114;11.670;2023-06-04T12:02:54;27.40;74.50
19261;DHT22;9764;48.114;11.670;2023-06-04T12:05:28;27.40;74.50
19261;DHT22;9764;48.114;11.670;2023-06-04T12:08:05;27.40;74.60
19261;DHT22;9764;48.114;11.670;2023-06-04T12:10:40;27.40;74.60
19261;DHT22;9764;48.114;11.670;2023-06-04T12:13:09;27.50;74.40
19261;DHT22;9764;48.114;11.670;2023-06-04T12:15:38;27.40;74.30
19261;DHT22;9764;48.114;11.670;2023-06-04T12:18:06;27.50;74.40
19261;DHT22;9764;48.114;11.670;2023-06-04T12:20:37;27.40;74.60
19261;DHT22;9764;48.114;11.670;2023-06-04T12:23:08;27.40;74.30
19261;DHT22;9764;48.114;11.670;2023-06-04T12:25:37;27.40;74.20
19261;DHT22;9764;48.114;11.670;2023-06-04T12:28:07;27.50;74.30
19261;DHT22;9764;48.114;11.670;2023-06-04T12:30:44;27.40;74.40
19261;DHT22;9764;48.114;11.670;2023-06-04T12:33:13;27.40;74.30
19261;DHT22;9764;48.114;11.670;2023-06-04T12:35:41;27.40;74.40
19261;DHT22;9764;48.114;11.670;2023-06-04T12:38:11;27.40;74.00
19261;DHT22;9764;48.114;11.670;2023-06-04T12:40:39;27.40;74.10
19261;DHT22;9764;48.114;11.670;2023-06-04T12:43:07;27.40;74.10
19261;DHT22;9764;48.114;11.670;2023-06-04T12:45:36;27.50;74.20
19261;DHT22;9764;48.114;11.670;2023-06-04T12:48:04;27.50;74.20
19261;DHT22;9764;48.114;11.670;2023-06-04T12:50:33;27.50;74.10
19261;DHT22;9764;48.114;11.670;2023-06-04T12:53:02;27.50;74.00
19261;DHT22;9764;48.114;11.670;2023-06-04T12:55:31;27.50;74.20
19261;DHT22;9764;48.114;11.670;2023-06-04T12:58:00;27.50;73.90
19261;DHT22;9764;48.114;11.670;2023-06-04T13:00:28;27.50;73.70
19261;DHT22;9764;48.114;11.670;2023-06-04T13:02:56;27.50;74.10
19261;DHT22;9764;48.114;11.670;2023-06-04T13:05:25;27.50;74.50
19261;DHT22;9764;48.114;11.670;2023-06-04T13:07:53;27.50;74.50
19261;DHT22;9764;48.114;11.670;2023-06-04T13:10:22;27.50;74.00
19261;DHT22;9764;48.114;11.670;2023-06-04T13:12:52;27.50;74.50
19261;DHT22;9764;48.114;11.670;2023-06-04T13:15:20;27.50;73.30
19261;DHT22;9764;48.114;11.670;2023-06-04T13:17:49;27.50;73.20
19261;DHT22;9764;48.114;11.670;2023-06-04T13:20:17;27.50;74.20
19261;DHT22;9764;48.114;11.670;2023-06-04T13:22:45;27.40;73.40
19261;DHT22;9764;48.114;11.670;2023-06-04T13:25:14;27.50;73.60
19261;DHT22;9764;48.114;11.670;2023-06-04T13:27:44;27.50;73.90
19261;DHT22;9764;48.114;11.670;2023-06-04T13:30:14;27.50;73.90
19261;DHT22;9764;48.114;11.670;2023-06-04T13:32:42;27.50;74.00
19261;DHT22;9764;48.114;11.670;2023-06-04T13:35:10;27.50;74.00
19261;DHT22;9764;48.114;11.670;2023-06-04T13:37:39;27.50;73.80
19261;DHT22;9764;48.114;11.670;2023-06-04T13:40:08;27.50;74.00
19261;DHT22;9764;48.114;11.670;2023-06-04T13:42:36;27.50;74.30
19261;DHT22;9764;48.114;11.670;2023-06-04T13:45:07;27.50;73.70
19261;DHT22;9764;48.114;11.670;2023-06-04T13:47:37;27.50;73.40
19261;DHT22;9764;48.114;11.670;2023-06-04T13:50:06;27.50;73.40
19261;DHT22;9764;48.114;11.670;2023-06-04T13:52:35;27.50;73.40
19261;DHT22;9764;48.114;11.670;2023-06-04T13:55:03;27.50;73.20
19261;DHT22;9764;48.114;11.670;2023-06-04T13:57:32;27.50;73.20
19261;DHT22;9764;48.114;11.670;2023-06-04T14:00:00;27.50;73.20
19261;DHT22;9764;48.114;11.670;2023-06-04T14:02:30;27.50;73.50
19261;DHT22;9764;48.114;11.670;2023-06-04T14:05:00;27.50;73.60
19261;DHT22;9764;48.114;11.670;2023-06-04T14:07:28;27.50;73.50
19261;DHT22;9764;48.114;11.670;2023-06-04T14:09:56;27.50;73.60
19261;DHT22;9764;48.114;11.670;2023-06-04T14:12:24;27.50;73.70
19261;DHT22;9764;48.114;11.670;2023-06-04T14:14:53;27.50;73.60
19261;DHT22;9764;48.114;11.670;2023-06-04T14:17:21;27.50;73.50
19261;DHT22;9764;48.114;11.670;2023-06-04T14:19:50;27.50;73.20
19261;DHT22;9764;48.114;11.670;2023-06-04T14:22:19;27.50;73.00
19261;DHT22;9764;48.114;11.670;2023-06-04T14:24:48;27.50;73.10
19261;DHT22;9764;48.114;11.670;2023-06-04T14:27:16;27.50;73.30
19261;DHT22;9764;48.114;11.670;2023-06-04T14:29:44;27.50;73.50
19261;DHT22;9764;48.114;11.670;2023-06-04T14:32:13;27.50;73.30
19261;DHT22;9764;48.114;11.670;2023-06-04T14:34:41;27.50;73.10
19261;DHT22;9764;48.114;11.670;2023-06-04T14:37:09;27.50;72.90
19261;DHT22;9764;48.114;11.670;2023-06-04T14:39:39;27.50;73.10
19261;DHT22;9764;48.114;11.670;2023-06-04T14:42:07;27.50;73.40
19261;DHT22;9764;48.114;11.670;2023-06-04T14:44:35;27.50;73.70
19261;DHT22;9764;48.114;11.670;2023-06-04T14:47:05;27.50;73.10
19261;DHT22;9764;48.114;11.670;2023-06-04T14:49:34;27.50;72.80
19261;DHT22;9764;48.114;11.670;2023-06-04T14:52:03;27.50;72.50
19261;DHT22;9764;48.114;11.670;2023-06-04T14:54:33;27.40;72.50
19261;DHT22;9764;48.114;11.670;2023-06-04T14:57:03;27.50;72.90
19261;DHT22;9764;48.114;11.670;2023-06-04T14:59:32;27.50;73.10
19261;DHT22;9764;48.114;11.670;2023-06-04T15:02:01;27.50;72.70
19261;DHT22;9764;48.114;11.670;2023-06-04T15:04:30;27.40;72.70
19261;DHT22;9764;48.114;11.670;2023-06-04T15:06:58;27.40;72.40
19261;DHT22;9764;48.114;11.670;2023-06-04T15:09:27;27.40;72.50
19261;DHT22;9764;48.114;11.670;2023-06-04T15:11:55;27.40;72.50
19261;DHT22;9764;48.114;11.670;2023-06-04T15:14:25;27.40;72.60
19261;DHT22;9764;48.114;11.670;2023-06-04T15:16:53;27.40;72.60
19261;DHT22;9764;48.114;11.670;2023-06-04T15:19:21;27.40;72.10
19261;DHT22;9764;48.114;11.670;2023-06-04T15:21:50;27.30;72.10
19261;DHT22;9764;48.114;11.670;2023-06-04T15:24:18;27.40;71.90
19261;DHT22;9764;48.114;11.670;2023-06-04T15:26:48;27.40;72.00
19261;DHT22;9764;48.114;11.670;2023-06-04T15:29:17;27.30;72.00
19261;DHT22;9764;48.114;11.670;2023-06-04T15:31:46;27.40;72.00
19261;DHT22;9764;48.114;11.670;2023-06-04T15:34:15;27.30;72.20
19261;DHT22;9764;48.114;11.670;2023-06-04T15:36:43;27.30;72.30
19261;DHT22;9764;48.114;11.670;2023-06-04T15:39:13;27.30;72.30
19261;DHT22;9764;48.114;11.670;2023-06-04T15:41:42;27.30;72.20
19261;DHT22;9764;48.114;11.670;2023-06-04T15:44:10;27.30;72.10
19261;DHT22;9764;48.114;11.670;2023-06-04T15:46:38;27.30;72.30